EGLC/LCY METAR and TAF weather

Enter ICAO airport designator
Station Type Date Time Source
EGLC METAR 2019/08/17 10:20 UTC NOAA

EGLC 171020Z AUTO 24012KT 9999 FEW030 SCT046 19/13 Q1005


Station Type Date Time Source
EGLC Decoded METAR 2019/08/17 10:20 UTC NOAA

Station name not available
Aug 17, 2019 - 06:20 AM EDT / 2019.08.17 1020 UTC
Wind: from the WSW (240 degrees) at 14 MPH (12 KT):0
Visibility: greater than 7 mile(s):0
Sky conditions: partly cloudy
Temperature: 66 F (19 C)
Dew Point: 55 F (13 C)
Relative Humidity: 68%
Pressure (altimeter): 29.68 in. Hg (1005 hPa)
ob: EGLC 171020Z AUTO 24012KT 9999 FEW030 SCT046 19/13 Q1005
cycle: 10

Station Type Date Time Source
EGLC TAF 2018/10/15 21:30 UTC NOAA

TAF EGLC 152119Z 1521/1621 CNL

Example: see airport list